sensor_id;sensor_type;location;lat;lon;timestamp;P1;durP1;ratioP1;P2;durP2;ratioP2
75362;SDS011;64122;51.988;5.892;2023-05-10T00:01:28;24.88;;;13.05;;
75362;SDS011;64122;51.988;5.892;2023-05-10T00:03:57;23.40;;;14.13;;
75362;SDS011;64122;51.988;5.892;2023-05-10T00:06:26;24.40;;;13.63;;
75362;SDS011;64122;51.988;5.892;2023-05-10T00:08:55;28.83;;;14.15;;
75362;SDS011;64122;51.988;5.892;2023-05-10T00:11:27;26.27;;;14.90;;
75362;SDS011;64122;51.988;5.892;2023-05-10T00:13:56;28.42;;;15.50;;
75362;SDS011;64122;51.988;5.892;2023-05-10T00:16:25;28.60;;;15.75;;
75362;SDS011;64122;51.988;5.892;2023-05-10T00:18:55;33.97;;;16.88;;
75362;SDS011;64122;51.988;5.892;2023-05-10T00:21:24;29.35;;;16.15;;
75362;SDS011;64122;51.988;5.892;2023-05-10T00:23:54;29.63;;;16.80;;
75362;SDS011;64122;51.988;5.892;2023-05-10T00:26:23;36.90;;;18.02;;
75362;SDS011;64122;51.988;5.892;2023-05-10T00:28:57;32.13;;;16.85;;
75362;SDS011;64122;51.988;5.892;2023-05-10T00:31:26;33.38;;;18.33;;
75362;SDS011;64122;51.988;5.892;2023-05-10T00:33:57;34.33;;;17.92;;
75362;SDS011;64122;51.988;5.892;2023-05-10T00:36:26;34.78;;;18.17;;
75362;SDS011;64122;51.988;5.892;2023-05-10T00:38:56;33.60;;;17.85;;
75362;SDS011;64122;51.988;5.892;2023-05-10T00:41:26;39.08;;;19.60;;
75362;SDS011;64122;51.988;5.892;2023-05-10T00:44:01;37.75;;;20.35;;
75362;SDS011;64122;51.988;5.892;2023-05-10T00:46:30;36.13;;;20.25;;
75362;SDS011;64122;51.988;5.892;2023-05-10T00:48:59;37.97;;;21.48;;
75362;SDS011;64122;51.988;5.892;2023-05-10T00:51:29;44.20;;;21.92;;
75362;SDS011;64122;51.988;5.892;2023-05-10T00:53:59;39.22;;;20.75;;
75362;SDS011;64122;51.988;5.892;2023-05-10T00:56:28;37.28;;;21.27;;
75362;SDS011;64122;51.988;5.892;2023-05-10T00:58:57;37.30;;;20.70;;
75362;SDS011;64122;51.988;5.892;2023-05-10T01:01:29;41.45;;;21.67;;
75362;SDS011;64122;51.988;5.892;2023-05-10T01:03:59;37.00;;;21.00;;
75362;SDS011;64122;51.988;5.892;2023-05-10T01:06:28;43.22;;;23.42;;
75362;SDS011;64122;51.988;5.892;2023-05-10T01:08:58;49.45;;;24.52;;
75362;SDS011;64122;51.988;5.892;2023-05-10T01:11:27;42.63;;;23.38;;
75362;SDS011;64122;51.988;5.892;2023-05-10T01:13:57;47.88;;;24.80;;
75362;SDS011;64122;51.988;5.892;2023-05-10T01:16:29;46.53;;;23.80;;
75362;SDS011;64122;51.988;5.892;2023-05-10T01:19:05;52.25;;;24.20;;
75362;SDS011;64122;51.988;5.892;2023-05-10T01:21:42;44.83;;;23.58;;
75362;SDS011;64122;51.988;5.892;2023-05-10T01:27:26;54.10;;;25.17;;
75362;SDS011;64122;51.988;5.892;2023-05-10T01:30:25;60.30;;;25.95;;
75362;SDS011;64122;51.988;5.892;2023-05-10T01:33:29;60.53;;;25.40;;
75362;SDS011;64122;51.988;5.892;2023-05-10T01:36:05;49.97;;;23.98;;
75362;SDS011;64122;51.988;5.892;2023-05-10T01:38:39;53.25;;;25.40;;
75362;SDS011;64122;51.988;5.892;2023-05-10T01:41:17;53.85;;;26.05;;
75362;SDS011;64122;51.988;5.892;2023-05-10T01:43:55;52.13;;;25.02;;
75362;SDS011;64122;51.988;5.892;2023-05-10T01:46:32;58.63;;;26.75;;
75362;SDS011;64122;51.988;5.892;2023-05-10T01:49:07;54.78;;;24.85;;
75362;SDS011;64122;51.988;5.892;2023-05-10T01:51:39;51.13;;;23.45;;
75362;SDS011;64122;51.988;5.892;2023-05-10T01:54:13;52.40;;;24.38;;
75362;SDS011;64122;51.988;5.892;2023-05-10T01:56:46;53.25;;;23.88;;
75362;SDS011;64122;51.988;5.892;2023-05-10T01:59:19;49.70;;;24.55;;
75362;SDS011;64122;51.988;5.892;2023-05-10T02:01:48;46.38;;;22.70;;
75362;SDS011;64122;51.988;5.892;2023-05-10T02:04:22;49.28;;;22.80;;
75362;SDS011;64122;51.988;5.892;2023-05-10T02:06:53;51.17;;;22.98;;
75362;SDS011;64122;51.988;5.892;2023-05-10T02:09:24;43.90;;;20.98;;
75362;SDS011;64122;51.988;5.892;2023-05-10T02:11:56;44.63;;;22.05;;
75362;SDS011;64122;51.988;5.892;2023-05-10T02:14:28;45.25;;;21.70;;
75362;SDS011;64122;51.988;5.892;2023-05-10T02:16:59;52.42;;;20.88;;
75362;SDS011;64122;51.988;5.892;2023-05-10T02:19:33;48.97;;;20.80;;
75362;SDS011;64122;51.988;5.892;2023-05-10T02:22:04;42.72;;;20.30;;
75362;SDS011;64122;51.988;5.892;2023-05-10T02:24:34;48.30;;;21.38;;
75362;SDS011;64122;51.988;5.892;2023-05-10T02:27:05;49.92;;;22.95;;
75362;SDS011;64122;51.988;5.892;2023-05-10T02:29:36;50.28;;;22.30;;
75362;SDS011;64122;51.988;5.892;2023-05-10T02:32:06;46.60;;;21.67;;
75362;SDS011;64122;51.988;5.892;2023-05-10T02:34:39;42.13;;;21.00;;
75362;SDS011;64122;51.988;5.892;2023-05-10T02:37:10;45.97;;;21.98;;
75362;SDS011;64122;51.988;5.892;2023-05-10T02:39:40;45.88;;;21.60;;
75362;SDS011;64122;51.988;5.892;2023-05-10T02:42:11;54.25;;;22.30;;
75362;SDS011;64122;51.988;5.892;2023-05-10T02:44:45;51.15;;;23.08;;
75362;SDS011;64122;51.988;5.892;2023-05-10T02:47:16;48.40;;;22.38;;
75362;SDS011;64122;51.988;5.892;2023-05-10T02:49:50;45.90;;;21.13;;
75362;SDS011;64122;51.988;5.892;2023-05-10T02:52:21;45.90;;;21.20;;
75362;SDS011;64122;51.988;5.892;2023-05-10T02:54:55;49.60;;;22.85;;
75362;SDS011;64122;51.988;5.892;2023-05-10T02:57:26;51.85;;;23.80;;
75362;SDS011;64122;51.988;5.892;2023-05-10T02:59:58;49.45;;;21.95;;
75362;SDS011;64122;51.988;5.892;2023-05-10T03:02:29;52.40;;;24.13;;
75362;SDS011;64122;51.988;5.892;2023-05-10T03:05:01;55.83;;;23.35;;
75362;SDS011;64122;51.988;5.892;2023-05-10T03:07:31;55.30;;;25.00;;
75362;SDS011;64122;51.988;5.892;2023-05-10T03:10:01;57.35;;;24.45;;
75362;SDS011;64122;51.988;5.892;2023-05-10T03:12:37;51.58;;;23.80;;
75362;SDS011;64122;51.988;5.892;2023-05-10T03:15:17;48.47;;;22.45;;
75362;SDS011;64122;51.988;5.892;2023-05-10T03:17:52;62.20;;;26.27;;
75362;SDS011;64122;51.988;5.892;2023-05-10T03:20:29;55.70;;;24.90;;
75362;SDS011;64122;51.988;5.892;2023-05-10T03:23:04;51.65;;;23.90;;
75362;SDS011;64122;51.988;5.892;2023-05-10T03:25:37;55.00;;;25.20;;
75362;SDS011;64122;51.988;5.892;2023-05-10T03:28:10;52.28;;;24.70;;
75362;SDS011;64122;51.988;5.892;2023-05-10T03:30:43;60.92;;;25.58;;
75362;SDS011;64122;51.988;5.892;2023-05-10T03:33:13;65.15;;;26.65;;
75362;SDS011;64122;51.988;5.892;2023-05-10T03:35:47;44.08;;;23.85;;
75362;SDS011;64122;51.988;5.892;2023-05-10T03:38:17;48.38;;;24.15;;
75362;SDS011;64122;51.988;5.892;2023-05-10T03:40:46;54.03;;;26.25;;
75362;SDS011;64122;51.988;5.892;2023-05-10T03:43:15;54.22;;;23.98;;
75362;SDS011;64122;51.988;5.892;2023-05-10T03:45:45;52.13;;;25.65;;
75362;SDS011;64122;51.988;5.892;2023-05-10T03:48:14;56.75;;;25.70;;
75362;SDS011;64122;51.988;5.892;2023-05-10T03:50:43;53.85;;;24.85;;
75362;SDS011;64122;51.988;5.892;2023-05-10T03:53:15;59.13;;;26.02;;
75362;SDS011;64122;51.988;5.892;2023-05-10T03:55:45;49.15;;;25.75;;
75362;SDS011;64122;51.988;5.892;2023-05-10T03:58:14;57.03;;;26.23;;
75362;SDS011;64122;51.988;5.892;2023-05-10T04:00:44;50.28;;;24.38;;
75362;SDS011;64122;51.988;5.892;2023-05-10T04:03:14;46.50;;;23.52;;
75362;SDS011;64122;51.988;5.892;2023-05-10T04:05:43;53.40;;;25.65;;
75362;SDS011;64122;51.988;5.892;2023-05-10T04:08:12;48.33;;;24.92;;
75362;SDS011;64122;51.988;5.892;2023-05-10T04:10:44;46.75;;;23.38;;
75362;SDS011;64122;51.988;5.892;2023-05-10T04:13:14;40.13;;;21.90;;
75362;SDS011;64122;51.988;5.892;2023-05-10T04:15:43;47.95;;;22.77;;
75362;SDS011;64122;51.988;5.892;2023-05-10T04:18:12;47.80;;;22.52;;
75362;SDS011;64122;51.988;5.892;2023-05-10T04:20:42;44.08;;;22.13;;
75362;SDS011;64122;51.988;5.892;2023-05-10T04:23:11;47.15;;;23.33;;
75362;SDS011;64122;51.988;5.892;2023-05-10T04:25:44;51.20;;;23.27;;
75362;SDS011;64122;51.988;5.892;2023-05-10T04:28:14;40.97;;;21.88;;
75362;SDS011;64122;51.988;5.892;2023-05-10T04:30:43;38.70;;;20.55;;
75362;SDS011;64122;51.988;5.892;2023-05-10T04:33:12;41.17;;;21.48;;
75362;SDS011;64122;51.988;5.892;2023-05-10T04:35:42;44.70;;;21.95;;
75362;SDS011;64122;51.988;5.892;2023-05-10T04:38:11;40.75;;;20.92;;
75362;SDS011;64122;51.988;5.892;2023-05-10T04:40:40;47.67;;;23.60;;
75362;SDS011;64122;51.988;5.892;2023-05-10T04:43:12;46.67;;;21.25;;
75362;SDS011;64122;51.988;5.892;2023-05-10T04:45:41;47.80;;;22.65;;
75362;SDS011;64122;51.988;5.892;2023-05-10T04:48:10;47.03;;;21.63;;
75362;SDS011;64122;51.988;5.892;2023-05-10T04:50:39;44.90;;;22.85;;
75362;SDS011;64122;51.988;5.892;2023-05-10T04:53:11;48.72;;;22.33;;
75362;SDS011;64122;51.988;5.892;2023-05-10T04:55:40;45.25;;;22.60;;
75362;SDS011;64122;51.988;5.892;2023-05-10T04:58:12;49.08;;;23.10;;
75362;SDS011;64122;51.988;5.892;2023-05-10T05:00:41;44.63;;;21.17;;
75362;SDS011;64122;51.988;5.892;2023-05-10T05:03:10;49.00;;;22.00;;
75362;SDS011;64122;51.988;5.892;2023-05-10T05:05:39;45.00;;;21.48;;
75362;SDS011;64122;51.988;5.892;2023-05-10T05:08:09;45.95;;;21.13;;
75362;SDS011;64122;51.988;5.892;2023-05-10T05:10:38;48.63;;;21.38;;
75362;SDS011;64122;51.988;5.892;2023-05-10T05:13:07;58.50;;;23.70;;
75362;SDS011;64122;51.988;5.892;2023-05-10T05:15:39;49.00;;;22.75;;
75362;SDS011;64122;51.988;5.892;2023-05-10T05:18:08;42.30;;;20.52;;
75362;SDS011;64122;51.988;5.892;2023-05-10T05:20:38;49.33;;;24.20;;
75362;SDS011;64122;51.988;5.892;2023-05-10T05:23:07;43.97;;;21.00;;
75362;SDS011;64122;51.988;5.892;2023-05-10T05:25:36;45.88;;;22.73;;
75362;SDS011;64122;51.988;5.892;2023-05-10T05:28:05;45.10;;;21.17;;
75362;SDS011;64122;51.988;5.892;2023-05-10T05:30:34;42.55;;;20.70;;
75362;SDS011;64122;51.988;5.892;2023-05-10T05:33:06;46.22;;;20.48;;
75362;SDS011;64122;51.988;5.892;2023-05-10T05:35:35;45.38;;;21.00;;
75362;SDS011;64122;51.988;5.892;2023-05-10T05:38:04;38.83;;;20.83;;
75362;SDS011;64122;51.988;5.892;2023-05-10T05:40:34;46.22;;;21.50;;
75362;SDS011;64122;51.988;5.892;2023-05-10T05:43:03;43.47;;;21.55;;
75362;SDS011;64122;51.988;5.892;2023-05-10T05:45:32;58.00;;;31.73;;
75362;SDS011;64122;51.988;5.892;2023-05-10T05:48:01;42.42;;;20.63;;
75362;SDS011;64122;51.988;5.892;2023-05-10T05:50:33;43.25;;;20.70;;
75362;SDS011;64122;51.988;5.892;2023-05-10T05:53:03;49.17;;;21.00;;
75362;SDS011;64122;51.988;5.892;2023-05-10T05:55:32;46.20;;;21.50;;
75362;SDS011;64122;51.988;5.892;2023-05-10T05:58:01;43.67;;;20.80;;
75362;SDS011;64122;51.988;5.892;2023-05-10T06:00:31;47.22;;;21.13;;
75362;SDS011;64122;51.988;5.892;2023-05-10T06:03:00;44.28;;;20.85;;
75362;SDS011;64122;51.988;5.892;2023-05-10T06:05:29;41.95;;;19.70;;
75362;SDS011;64122;51.988;5.892;2023-05-10T06:08:01;44.60;;;20.63;;
75362;SDS011;64122;51.988;5.892;2023-05-10T06:10:31;48.15;;;20.23;;
75362;SDS011;64122;51.988;5.892;2023-05-10T06:13:00;44.65;;;19.42;;
75362;SDS011;64122;51.988;5.892;2023-05-10T06:15:30;48.55;;;22.25;;
75362;SDS011;64122;51.988;5.892;2023-05-10T06:18:00;44.83;;;20.70;;
75362;SDS011;64122;51.988;5.892;2023-05-10T06:20:29;40.60;;;18.98;;
75362;SDS011;64122;51.988;5.892;2023-05-10T06:23:02;48.00;;;21.52;;
75362;SDS011;64122;51.988;5.892;2023-05-10T06:25:31;48.60;;;21.63;;
75362;SDS011;64122;51.988;5.892;2023-05-10T06:28:00;48.08;;;21.88;;
75362;SDS011;64122;51.988;5.892;2023-05-10T06:30:29;44.60;;;20.85;;
75362;SDS011;64122;51.988;5.892;2023-05-10T06:32:58;45.13;;;21.17;;
75362;SDS011;64122;51.988;5.892;2023-05-10T06:35:28;44.60;;;20.15;;
75362;SDS011;64122;51.988;5.892;2023-05-10T06:37:58;48.28;;;21.70;;
75362;SDS011;64122;51.988;5.892;2023-05-10T06:40:30;40.08;;;18.70;;
75362;SDS011;64122;51.988;5.892;2023-05-10T06:42:59;39.13;;;19.98;;
75362;SDS011;64122;51.988;5.892;2023-05-10T06:45:28;43.90;;;21.95;;
75362;SDS011;64122;51.988;5.892;2023-05-10T06:47:58;45.25;;;21.55;;
75362;SDS011;64122;51.988;5.892;2023-05-10T06:50:27;52.88;;;21.70;;
75362;SDS011;64122;51.988;5.892;2023-05-10T06:52:56;44.92;;;21.48;;
75362;SDS011;64122;51.988;5.892;2023-05-10T06:55:25;44.25;;;21.67;;
75362;SDS011;64122;51.988;5.892;2023-05-10T06:57:57;48.70;;;22.75;;
75362;SDS011;64122;51.988;5.892;2023-05-10T07:00:26;40.03;;;21.05;;
75362;SDS011;64122;51.988;5.892;2023-05-10T07:02:56;46.05;;;22.77;;
75362;SDS011;64122;51.988;5.892;2023-05-10T07:05:25;45.03;;;21.80;;
75362;SDS011;64122;51.988;5.892;2023-05-10T07:07:55;43.22;;;21.92;;
75362;SDS011;64122;51.988;5.892;2023-05-10T07:10:24;45.45;;;22.17;;
75362;SDS011;64122;51.988;5.892;2023-05-10T07:12:53;43.50;;;22.75;;
75362;SDS011;64122;51.988;5.892;2023-05-10T07:15:25;41.80;;;21.05;;
75362;SDS011;64122;51.988;5.892;2023-05-10T07:17:54;40.45;;;21.00;;
75362;SDS011;64122;51.988;5.892;2023-05-10T07:20:24;45.28;;;22.23;;
75362;SDS011;64122;51.988;5.892;2023-05-10T07:22:53;40.03;;;21.30;;
75362;SDS011;64122;51.988;5.892;2023-05-10T07:25:22;42.70;;;22.15;;
75362;SDS011;64122;51.988;5.892;2023-05-10T07:27:52;46.58;;;23.08;;
75362;SDS011;64122;51.988;5.892;2023-05-10T07:30:21;50.40;;;26.20;;
75362;SDS011;64122;51.988;5.892;2023-05-10T07:32:53;48.63;;;23.55;;
75362;SDS011;64122;51.988;5.892;2023-05-10T07:35:22;49.20;;;23.65;;
75362;SDS011;64122;51.988;5.892;2023-05-10T07:37:51;52.05;;;23.48;;
75362;SDS011;64122;51.988;5.892;2023-05-10T07:40:20;52.55;;;24.63;;
75362;SDS011;64122;51.988;5.892;2023-05-10T07:42:50;48.25;;;23.80;;
75362;SDS011;64122;51.988;5.892;2023-05-10T07:45:19;48.78;;;23.08;;
75362;SDS011;64122;51.988;5.892;2023-05-10T07:47:48;45.90;;;22.95;;
75362;SDS011;64122;51.988;5.892;2023-05-10T07:50:20;48.33;;;24.35;;
75362;SDS011;64122;51.988;5.892;2023-05-10T07:52:49;44.42;;;21.25;;
75362;SDS011;64122;51.988;5.892;2023-05-10T07:55:19;46.22;;;21.35;;
75362;SDS011;64122;51.988;5.892;2023-05-10T07:57:49;46.15;;;22.58;;
75362;SDS011;64122;51.988;5.892;2023-05-10T08:00:19;48.38;;;22.42;;
75362;SDS011;64122;51.988;5.892;2023-05-10T08:02:48;44.03;;;22.17;;
75362;SDS011;64122;51.988;5.892;2023-05-10T08:05:21;48.05;;;21.75;;
75362;SDS011;64122;51.988;5.892;2023-05-10T08:07:53;42.78;;;21.98;;
75362;SDS011;64122;51.988;5.892;2023-05-10T08:10:23;49.10;;;22.73;;
75362;SDS011;64122;51.988;5.892;2023-05-10T08:12:53;41.50;;;20.23;;
75362;SDS011;64122;51.988;5.892;2023-05-10T08:15:24;40.35;;;19.67;;
75362;SDS011;64122;51.988;5.892;2023-05-10T08:17:53;41.00;;;20.23;;
75362;SDS011;64122;51.988;5.892;2023-05-10T08:20:25;41.90;;;21.13;;
75362;SDS011;64122;51.988;5.892;2023-05-10T08:22:55;43.08;;;21.13;;
75362;SDS011;64122;51.988;5.892;2023-05-10T08:25:24;41.63;;;21.80;;
75362;SDS011;64122;51.988;5.892;2023-05-10T08:27:54;41.50;;;21.52;;
75362;SDS011;64122;51.988;5.892;2023-05-10T08:30:23;41.17;;;21.92;;
75362;SDS011;64122;51.988;5.892;2023-05-10T08:32:52;43.95;;;21.58;;
75362;SDS011;64122;51.988;5.892;2023-05-10T08:35:21;36.33;;;18.67;;
75362;SDS011;64122;51.988;5.892;2023-05-10T08:37:53;30.48;;;17.05;;
75362;SDS011;64122;51.988;5.892;2023-05-10T08:40:22;34.03;;;18.10;;
75362;SDS011;64122;51.988;5.892;2023-05-10T08:42:55;33.75;;;15.55;;
75362;SDS011;64122;51.988;5.892;2023-05-10T08:45:30;33.28;;;17.48;;
75362;SDS011;64122;51.988;5.892;2023-05-10T08:48:01;30.10;;;15.55;;
75362;SDS011;64122;51.988;5.892;2023-05-10T08:50:34;26.42;;;13.45;;
75362;SDS011;64122;51.988;5.892;2023-05-10T08:53:09;24.35;;;12.98;;
75362;SDS011;64122;51.988;5.892;2023-05-10T08:55:39;26.90;;;14.07;;
75362;SDS011;64122;51.988;5.892;2023-05-10T08:58:09;26.15;;;13.07;;
75362;SDS011;64122;51.988;5.892;2023-05-10T09:00:38;26.25;;;12.77;;
75362;SDS011;64122;51.988;5.892;2023-05-10T09:03:08;20.35;;;10.82;;
75362;SDS011;64122;51.988;5.892;2023-05-10T09:05:38;20.10;;;10.95;;
75362;SDS011;64122;51.988;5.892;2023-05-10T09:08:10;20.38;;;11.20;;
75362;SDS011;64122;51.988;5.892;2023-05-10T09:10:42;22.08;;;10.60;;
75362;SDS011;64122;51.988;5.892;2023-05-10T09:13:13;19.27;;;10.30;;
75362;SDS011;64122;51.988;5.892;2023-05-10T09:15:44;17.35;;;9.43;;
75362;SDS011;64122;51.988;5.892;2023-05-10T09:18:14;16.75;;;9.68;;
75362;SDS011;64122;51.988;5.892;2023-05-10T09:20:43;15.85;;;9.32;;
75362;SDS011;64122;51.988;5.892;2023-05-10T09:23:15;19.15;;;9.43;;
75362;SDS011;64122;51.988;5.892;2023-05-10T09:25:44;17.40;;;9.02;;
75362;SDS011;64122;51.988;5.892;2023-05-10T09:28:13;15.68;;;9.43;;
75362;SDS011;64122;51.988;5.892;2023-05-10T09:30:42;18.83;;;8.98;;
75362;SDS011;64122;51.988;5.892;2023-05-10T09:33:11;18.05;;;7.32;;
75362;SDS011;64122;51.988;5.892;2023-05-10T09:35:41;13.48;;;8.10;;
75362;SDS011;64122;51.988;5.892;2023-05-10T09:38:10;15.73;;;7.13;;
75362;SDS011;64122;51.988;5.892;2023-05-10T09:40:42;15.07;;;8.52;;
75362;SDS011;64122;51.988;5.892;2023-05-10T09:43:21;14.98;;;7.80;;
75362;SDS011;64122;51.988;5.892;2023-05-10T09:45:50;14.23;;;6.47;;
75362;SDS011;64122;51.988;5.892;2023-05-10T09:48:21;12.00;;;6.90;;
75362;SDS011;64122;51.988;5.892;2023-05-10T09:50:56;14.85;;;7.32;;
75362;SDS011;64122;51.988;5.892;2023-05-10T09:53:26;13.85;;;7.35;;
75362;SDS011;64122;51.988;5.892;2023-05-10T09:55:58;12.55;;;7.00;;
75362;SDS011;64122;51.988;5.892;2023-05-10T09:58:27;12.68;;;7.50;;
75362;SDS011;64122;51.988;5.892;2023-05-10T10:00:56;14.25;;;7.00;;
75362;SDS011;64122;51.988;5.892;2023-05-10T10:03:26;13.70;;;6.93;;
75362;SDS011;64122;51.988;5.892;2023-05-10T10:05:57;14.07;;;7.05;;
75362;SDS011;64122;51.988;5.892;2023-05-10T10:08:26;12.32;;;7.15;;
75362;SDS011;64122;51.988;5.892;2023-05-10T10:10:58;12.90;;;7.85;;
75362;SDS011;64122;51.988;5.892;2023-05-10T10:13:28;14.23;;;7.32;;
75362;SDS011;64122;51.988;5.892;2023-05-10T10:15:57;15.10;;;7.97;;
75362;SDS011;64122;51.988;5.892;2023-05-10T10:18:27;15.02;;;7.63;;
75362;SDS011;64122;51.988;5.892;2023-05-10T10:20:57;13.20;;;7.53;;
75362;SDS011;64122;51.988;5.892;2023-05-10T10:23:27;14.30;;;8.23;;
75362;SDS011;64122;51.988;5.892;2023-05-10T10:25:58;15.00;;;7.28;;
75362;SDS011;64122;51.988;5.892;2023-05-10T10:28:32;14.00;;;8.45;;
75362;SDS011;64122;51.988;5.892;2023-05-10T10:31:13;17.92;;;8.70;;
75362;SDS011;64122;51.988;5.892;2023-05-10T10:36:39;14.55;;;8.43;;
75362;SDS011;64122;51.988;5.892;2023-05-10T10:39:10;13.85;;;7.43;;
75362;SDS011;64122;51.988;5.892;2023-05-10T10:41:51;15.55;;;7.95;;
75362;SDS011;64122;51.988;5.892;2023-05-10T10:44:25;13.93;;;8.35;;
75362;SDS011;64122;51.988;5.892;2023-05-10T10:47:09;13.98;;;8.20;;
75362;SDS011;64122;51.988;5.892;2023-05-10T10:50:05;16.42;;;8.50;;
75362;SDS011;64122;51.988;5.892;2023-05-10T10:52:36;15.00;;;8.07;;
75362;SDS011;64122;51.988;5.892;2023-05-10T10:55:07;21.55;;;10.82;;
75362;SDS011;64122;51.988;5.892;2023-05-10T11:00:30;12.98;;;7.40;;
75362;SDS011;64122;51.988;5.892;2023-05-10T11:03:03;14.00;;;7.78;;
75362;SDS011;64122;51.988;5.892;2023-05-10T11:05:35;13.30;;;8.25;;
75362;SDS011;64122;51.988;5.892;2023-05-10T11:08:10;12.65;;;8.10;;
75362;SDS011;64122;51.988;5.892;2023-05-10T11:13:38;13.07;;;8.50;;
75362;SDS011;64122;51.988;5.892;2023-05-10T11:16:12;15.82;;;8.95;;
75362;SDS011;64122;51.988;5.892;2023-05-10T11:18:52;12.32;;;7.60;;
75362;SDS011;64122;51.988;5.892;2023-05-10T11:21:23;11.40;;;7.38;;
75362;SDS011;64122;51.988;5.892;2023-05-10T11:23:53;16.08;;;8.88;;
75362;SDS011;64122;51.988;5.892;2023-05-10T11:26:24;13.30;;;7.63;;
75362;SDS011;64122;51.988;5.892;2023-05-10T11:28:57;13.30;;;7.97;;
75362;SDS011;64122;51.988;5.892;2023-05-10T11:31:27;11.63;;;7.30;;
75362;SDS011;64122;51.988;5.892;2023-05-10T11:33:57;13.73;;;7.32;;
75362;SDS011;64122;51.988;5.892;2023-05-10T11:36:29;11.40;;;6.60;;
75362;SDS011;64122;51.988;5.892;2023-05-10T11:39:02;12.07;;;6.47;;
75362;SDS011;64122;51.988;5.892;2023-05-10T11:41:32;11.57;;;6.00;;
75362;SDS011;64122;51.988;5.892;2023-05-10T11:44:04;13.13;;;7.22;;
75362;SDS011;64122;51.988;5.892;2023-05-10T11:46:33;12.60;;;6.70;;
75362;SDS011;64122;51.988;5.892;2023-05-10T11:49:02;12.93;;;7.43;;
75362;SDS011;64122;51.988;5.892;2023-05-10T11:51:33;12.80;;;7.47;;
75362;SDS011;64122;51.988;5.892;2023-05-10T11:54:05;10.68;;;6.60;;
75362;SDS011;64122;51.988;5.892;2023-05-10T11:56:36;14.82;;;7.00;;
75362;SDS011;64122;51.988;5.892;2023-05-10T11:59:08;11.32;;;7.10;;
75362;SDS011;64122;51.988;5.892;2023-05-10T12:01:37;13.52;;;6.70;;
75362;SDS011;64122;51.988;5.892;2023-05-10T12:04:07;13.88;;;7.15;;
75362;SDS011;64122;51.988;5.892;2023-05-10T12:06:37;11.48;;;6.65;;
75362;SDS011;64122;51.988;5.892;2023-05-10T12:09:09;11.95;;;6.63;;
75362;SDS011;64122;51.988;5.892;2023-05-10T12:11:39;11.68;;;6.80;;
75362;SDS011;64122;51.988;5.892;2023-05-10T12:14:11;11.25;;;7.05;;
75362;SDS011;64122;51.988;5.892;2023-05-10T12:16:42;10.45;;;6.70;;
75362;SDS011;64122;51.988;5.892;2023-05-10T12:19:12;11.15;;;6.55;;
75362;SDS011;64122;51.988;5.892;2023-05-10T12:21:46;14.63;;;7.30;;
75362;SDS011;64122;51.988;5.892;2023-05-10T12:24:16;13.40;;;7.03;;
75362;SDS011;64122;51.988;5.892;2023-05-10T12:26:47;11.13;;;7.20;;
75362;SDS011;64122;51.988;5.892;2023-05-10T12:29:19;11.80;;;6.85;;
75362;SDS011;64122;51.988;5.892;2023-05-10T12:31:49;11.23;;;6.45;;
75362;SDS011;64122;51.988;5.892;2023-05-10T12:34:25;11.52;;;5.88;;
75362;SDS011;64122;51.988;5.892;2023-05-10T12:36:54;12.43;;;5.80;;
75362;SDS011;64122;51.988;5.892;2023-05-10T12:39:24;9.40;;;5.13;;
75362;SDS011;64122;51.988;5.892;2023-05-10T12:41:53;8.55;;;5.20;;
75362;SDS011;64122;51.988;5.892;2023-05-10T12:44:25;8.70;;;4.63;;
75362;SDS011;64122;51.988;5.892;2023-05-10T12:46:54;10.68;;;5.28;;
75362;SDS011;64122;51.988;5.892;2023-05-10T12:49:24;9.13;;;5.10;;
75362;SDS011;64122;51.988;5.892;2023-05-10T12:51:53;8.50;;;4.85;;
75362;SDS011;64122;51.988;5.892;2023-05-10T12:54:22;9.00;;;4.93;;
75362;SDS011;64122;51.988;5.892;2023-05-10T12:56:51;9.40;;;4.82;;
75362;SDS011;64122;51.988;5.892;2023-05-10T12:59:20;8.25;;;4.57;;
75362;SDS011;64122;51.988;5.892;2023-05-10T13:01:52;10.75;;;5.10;;
75362;SDS011;64122;51.988;5.892;2023-05-10T13:04:22;10.70;;;4.40;;
75362;SDS011;64122;51.988;5.892;2023-05-10T13:06:51;7.85;;;4.40;;
75362;SDS011;64122;51.988;5.892;2023-05-10T13:09:21;9.07;;;4.68;;
75362;SDS011;64122;51.988;5.892;2023-05-10T13:11:51;8.90;;;4.80;;
75362;SDS011;64122;51.988;5.892;2023-05-10T13:14:20;9.55;;;4.85;;
75362;SDS011;64122;51.988;5.892;2023-05-10T13:16:49;8.90;;;5.25;;
75362;SDS011;64122;51.988;5.892;2023-05-10T13:19:22;9.27;;;5.72;;
75362;SDS011;64122;51.988;5.892;2023-05-10T13:21:51;10.70;;;5.13;;
75362;SDS011;64122;51.988;5.892;2023-05-10T13:24:20;9.07;;;4.90;;
75362;SDS011;64122;51.988;5.892;2023-05-10T13:26:49;12.32;;;5.38;;
75362;SDS011;64122;51.988;5.892;2023-05-10T13:29:19;8.73;;;5.28;;
75362;SDS011;64122;51.988;5.892;2023-05-10T13:31:48;8.45;;;4.80;;
75362;SDS011;64122;51.988;5.892;2023-05-10T13:34:17;11.43;;;5.20;;
75362;SDS011;64122;51.988;5.892;2023-05-10T13:36:50;8.38;;;5.13;;
75362;SDS011;64122;51.988;5.892;2023-05-10T13:39:19;10.55;;;4.97;;
75362;SDS011;64122;51.988;5.892;2023-05-10T13:41:49;9.73;;;4.90;;
75362;SDS011;64122;51.988;5.892;2023-05-10T13:44:19;11.57;;;5.32;;
75362;SDS011;64122;51.988;5.892;2023-05-10T13:46:49;12.15;;;6.00;;
75362;SDS011;64122;51.988;5.892;2023-05-10T13:49:18;10.48;;;6.13;;
75362;SDS011;64122;51.988;5.892;2023-05-10T13:51:50;10.75;;;6.53;;
75362;SDS011;64122;51.988;5.892;2023-05-10T13:54:19;10.45;;;6.97;;
75362;SDS011;64122;51.988;5.892;2023-05-10T13:56:48;10.68;;;7.30;;
75362;SDS011;64122;51.988;5.892;2023-05-10T13:59:18;12.00;;;8.20;;
75362;SDS011;64122;51.988;5.892;2023-05-10T14:01:47;11.63;;;8.63;;
75362;SDS011;64122;51.988;5.892;2023-05-10T14:04:16;12.15;;;8.57;;
75362;SDS011;64122;51.988;5.892;2023-05-10T14:06:46;11.40;;;7.70;;
75362;SDS011;64122;51.988;5.892;2023-05-10T14:09:17;11.25;;;6.95;;
75362;SDS011;64122;51.988;5.892;2023-05-10T14:14:16;9.77;;;7.03;;
75362;SDS011;64122;51.988;5.892;2023-05-10T14:16:45;11.25;;;7.70;;
75362;SDS011;64122;51.988;5.892;2023-05-10T14:19:15;11.00;;;7.35;;
75362;SDS011;64122;51.988;5.892;2023-05-10T14:21:44;13.07;;;8.90;;
75362;SDS011;64122;51.988;5.892;2023-05-10T14:24:13;15.23;;;8.05;;
75362;SDS011;64122;51.988;5.892;2023-05-10T14:26:45;14.90;;;7.78;;
75362;SDS011;64122;51.988;5.892;2023-05-10T14:29:14;10.52;;;7.85;;
75362;SDS011;64122;51.988;5.892;2023-05-10T14:31:43;12.15;;;7.38;;
75362;SDS011;64122;51.988;5.892;2023-05-10T14:34:12;14.73;;;7.22;;
75362;SDS011;64122;51.988;5.892;2023-05-10T14:36:43;9.73;;;6.65;;
75362;SDS011;64122;51.988;5.892;2023-05-10T14:39:12;10.95;;;6.32;;
75362;SDS011;64122;51.988;5.892;2023-05-10T14:41:44;9.20;;;6.30;;
75362;SDS011;64122;51.988;5.892;2023-05-10T14:44:14;8.25;;;5.00;;
75362;SDS011;64122;51.988;5.892;2023-05-10T14:46:44;8.10;;;5.25;;
75362;SDS011;64122;51.988;5.892;2023-05-10T14:49:14;7.72;;;4.22;;
75362;SDS011;64122;51.988;5.892;2023-05-10T14:51:43;7.38;;;4.40;;
75362;SDS011;64122;51.988;5.892;2023-05-10T14:54:12;8.60;;;4.38;;
75362;SDS011;64122;51.988;5.892;2023-05-10T14:56:41;7.90;;;4.20;;
75362;SDS011;64122;51.988;5.892;2023-05-10T14:59:13;6.57;;;3.85;;
75362;SDS011;64122;51.988;5.892;2023-05-10T15:01:42;6.75;;;3.72;;
75362;SDS011;64122;51.988;5.892;2023-05-10T15:04:11;7.97;;;4.40;;